N264CP KLAX-
Flight info
| Callsign | N264CP |
|---|---|
| Flight time | N/A |
| Altitude | |
| Route | |
| Aircraft | SR22/L-VGD/C |
Departure
| Time | 2026-04-25 20:31 |
|---|---|
| Airport | Los Angeles International Airport (KLAX) |
Arrival
| Time | N/A |
|---|---|
| Airport | - |
| Time | Latitude | Longitude | Altitude | Speed | Heading |
|---|---|---|---|---|---|
| 2026-04-25 20:29 | 33.93694 | -118.38284 | 92 ft | 14 kts | 354° |
| 2026-04-25 20:29 | 33.93734 | -118.38308 | 92 ft | 10 kts | 246° |
| 2026-04-25 20:29 | 33.93731 | -118.38323 | 92 ft | 0 kts | 263° |
| 2026-04-25 20:29 | 33.93731 | -118.38325 | 92 ft | 0 kts | 264° |
| 2026-04-25 20:30 | 33.93716 | -118.38464 | 90 ft | 54 kts | 263° |
| 2026-04-25 20:30 | 33.93644 | -118.39110 | 190 ft | 90 kts | 259° |
| 2026-04-25 20:30 | 33.93570 | -118.39868 | 503 ft | 97 kts | 257° |
| 2026-04-25 20:31 | 33.93533 | -118.40696 | 909 ft | 96 kts | 259° |
| 2026-04-25 20:31 | 33.93482 | -118.41523 | 1279 ft | 99 kts | 257° |
| 2026-04-25 20:31 | 33.93367 | -118.42423 | 1546 ft | 112 kts | 255° |
| 2026-04-25 20:31 | 33.93213 | -118.43479 | 1520 ft | 140 kts | 260° |
| 2026-04-25 20:32 | 33.93639 | -118.44522 | 1663 ft | 151 kts | 321° |
| 2026-04-25 20:32 | 33.94603 | -118.45096 | 1559 ft | 156 kts | 332° |
| 2026-04-25 20:32 | 33.95607 | -118.45642 | 1485 ft | 157 kts | 331° |
| 2026-04-25 20:32 | 33.96546 | -118.46163 | 1756 ft | 138 kts | 331° |
| 2026-04-25 20:33 | 33.97382 | -118.46633 | 1944 ft | 130 kts | 329° |
| 2026-04-25 20:33 | 33.98151 | -118.47116 | 2166 ft | 124 kts | 326° |
| 2026-04-25 20:33 | 33.98822 | -118.47774 | 2200 ft | 129 kts | 286° |
| 2026-04-25 20:33 | 33.99140 | -118.48429 | 2226 ft | 136 kts | 304° |
| 2026-04-25 20:34 | 34.00105 | -118.49475 | 2284 ft | 143 kts | 319° |
| 2026-04-25 20:34 | 34.00887 | -118.50217 | 2405 ft | 144 kts | 319° |
| 2026-04-25 20:34 | 34.01667 | -118.50961 | 2473 ft | 146 kts | 317° |
| 2026-04-25 20:34 | 34.02491 | -118.51702 | 2577 ft | 147 kts | 319° |
| 2026-04-25 20:35 | 34.03235 | -118.52583 | 2708 ft | 151 kts | 303° |
| 2026-04-25 20:35 | 34.03740 | -118.53707 | 2761 ft | 157 kts | 292° |
| 2026-04-25 20:35 | 34.04225 | -118.54899 | 2854 ft | 157 kts | 292° |
| 2026-04-25 20:35 | 34.04627 | -118.56114 | 2946 ft | 154 kts | 284° |
| 2026-04-25 20:36 | 34.05043 | -118.57315 | 3062 ft | 157 kts | 297° |
| 2026-04-25 20:36 | 34.05873 | -118.58158 | 3105 ft | 162 kts | 340° |
| 2026-04-25 20:36 | 34.07009 | -118.58086 | 2962 ft | 169 kts | 32° |
| 2026-04-25 20:36 | 34.07583 | -118.57004 | 2856 ft | 154 kts | 93° |
| 2026-04-25 20:37 | 34.07178 | -118.55849 | 2679 ft | 154 kts | 130° |
| 2026-04-25 20:37 | 34.06462 | -118.54846 | 2546 ft | 156 kts | 135° |
| 2026-04-25 20:37 | 34.05805 | -118.53830 | 2473 ft | 155 kts | 124° |
| 2026-04-25 20:37 | 34.05680 | -118.52497 | 2239 ft | 163 kts | 94° |
| 2026-04-25 20:38 | 34.05411 | -118.51304 | 2254 ft | 143 kts | 122° |
| 2026-04-25 20:38 | 34.04859 | -118.50325 | 2215 ft | 141 kts | 136° |
| 2026-04-25 20:38 | 34.04172 | -118.49500 | 2325 ft | 140 kts | 141° |
| 2026-04-25 20:38 | 34.03393 | -118.48739 | 2470 ft | 141 kts | 144° |
| 2026-04-25 20:39 | 34.02613 | -118.47956 | 2529 ft | 148 kts | 143° |
| 2026-04-25 20:39 | 34.01800 | -118.47170 | 2559 ft | 153 kts | 145° |
| 2026-04-25 20:39 | 34.00947 | -118.46401 | 2563 ft | 154 kts | 147° |
| 2026-04-25 20:39 | 34.00376 | -118.45895 | 2532 ft | 154 kts | 147° |
| 2026-04-25 20:40 | 33.99224 | -118.44834 | 2564 ft | 157 kts | 145° |
| 2026-04-25 20:40 | 33.98308 | -118.44084 | 2550 ft | 162 kts | 150° |
| 2026-04-25 20:40 | 33.97337 | -118.43303 | 2418 ft | 172 kts | 150° |
| 2026-04-25 20:40 | 33.96357 | -118.42491 | 2411 ft | 165 kts | 149° |
| 2026-04-25 20:41 | 33.95442 | -118.41693 | 2487 ft | 165 kts | 148° |
| 2026-04-25 20:41 | 33.94498 | -118.40856 | 2459 ft | 169 kts | 148° |
| 2026-04-25 20:41 | 33.93538 | -118.40037 | 2539 ft | 167 kts | 148° |
| 2026-04-25 20:41 | 33.92557 | -118.39271 | 2543 ft | 169 kts | 151° |
| 2026-04-25 20:42 | 33.91536 | -118.38590 | 2579 ft | 168 kts | 156° |
| 2026-04-25 20:42 | 33.90490 | -118.37966 | 2647 ft | 168 kts | 159° |
| 2026-04-25 20:42 | 33.89438 | -118.37352 | 2666 ft | 170 kts | 157° |
| 2026-04-25 20:42 | 33.88367 | -118.36725 | 2640 ft | 169 kts | 158° |
| 2026-04-25 20:43 | 33.87318 | -118.36126 | 2608 ft | 165 kts | 158° |
| 2026-04-25 20:43 | 33.86279 | -118.35544 | 2575 ft | 162 kts | 159° |
| 2026-04-25 20:43 | 33.85284 | -118.35020 | 2564 ft | 153 kts | 163° |
| 2026-04-25 20:43 | 33.84257 | -118.34639 | 2500 ft | 152 kts | 166° |
| 2026-04-25 20:44 | 33.83249 | -118.34305 | 2496 ft | 148 kts | 167° |
| 2026-04-25 20:44 | 33.82270 | -118.33978 | 2516 ft | 145 kts | 167° |
| 2026-04-25 20:44 | 33.81293 | -118.33679 | 2512 ft | 145 kts | 168° |
| 2026-04-25 20:44 | 33.80322 | -118.33472 | 2585 ft | 139 kts | 186° |
| 2026-04-25 20:45 | 33.79426 | -118.33913 | 2574 ft | 142 kts | 217° |
| 2026-04-25 20:45 | 33.78879 | -118.34903 | 2578 ft | 147 kts | 251° |
| 2026-04-25 20:45 | 33.79063 | -118.36150 | 2463 ft | 165 kts | 298° |
| 2026-04-25 20:45 | 33.79957 | -118.36987 | 2441 ft | 166 kts | 333° |
| 2026-04-25 20:46 | 33.81035 | -118.37451 | 2390 ft | 165 kts | 340° |
| 2026-04-25 20:46 | 33.82116 | -118.37803 | 2515 ft | 160 kts | 344° |
| 2026-04-25 20:46 | 33.83208 | -118.38096 | 2491 ft | 164 kts | 343° |
| 2026-04-25 20:46 | 33.84330 | -118.38393 | 2510 ft | 163 kts | 345° |
| 2026-04-25 20:47 | 33.85444 | -118.38693 | 2508 ft | 160 kts | 342° |
| 2026-04-25 20:47 | 33.86494 | -118.39015 | 2656 ft | 154 kts | 339° |
| 2026-04-25 20:47 | 33.87564 | -118.39317 | 2569 ft | 161 kts | 344° |
| 2026-04-25 20:47 | 33.88650 | -118.39594 | 2547 ft | 158 kts | 345° |
| 2026-04-25 20:48 | 33.89713 | -118.39863 | 2589 ft | 154 kts | 340° |
| 2026-04-25 20:48 | 33.90760 | -118.40196 | 2555 ft | 156 kts | 342° |
| 2026-04-25 20:48 | 33.91816 | -118.40491 | 2612 ft | 157 kts | 343° |
| 2026-04-25 20:48 | 33.92890 | -118.40850 | 2484 ft | 162 kts | 338° |
| 2026-04-25 20:49 | 33.93936 | -118.41283 | 2469 ft | 161 kts | 335° |
| 2026-04-25 20:49 | 33.94961 | -118.41741 | 2540 ft | 154 kts | 334° |
| 2026-04-25 20:49 | 33.95956 | -118.42217 | 2554 ft | 154 kts | 335° |
| 2026-04-25 20:49 | 33.96941 | -118.42748 | 2497 ft | 158 kts | 331° |
| 2026-04-25 20:50 | 33.97926 | -118.43323 | 2507 ft | 156 kts | 328° |
| 2026-04-25 20:50 | 33.98855 | -118.43924 | 2644 ft | 151 kts | 327° |
| 2026-04-25 20:50 | 33.99759 | -118.44680 | 2602 ft | 164 kts | 320° |
| 2026-04-25 20:50 | 34.00642 | -118.45572 | 2535 ft | 167 kts | 314° |
| 2026-04-25 20:51 | 34.01498 | -118.46522 | 2480 ft | 165 kts | 312° |
| 2026-04-25 20:51 | 34.02299 | -118.47504 | 2528 ft | 164 kts | 309° |
| 2026-04-25 20:51 | 34.03059 | -118.48539 | 2523 ft | 166 kts | 307° |
| 2026-04-25 20:51 | 34.03784 | -118.49612 | 2577 ft | 164 kts | 304° |
| 2026-04-25 20:52 | 34.04475 | -118.50699 | 2615 ft | 161 kts | 302° |
| 2026-04-25 20:52 | 34.04884 | -118.51457 | 2602 ft | 162 kts | 297° |
| 2026-04-25 20:52 | 34.05657 | -118.53061 | 2642 ft | 167 kts | 294° |
| 2026-04-25 20:52 | 34.06190 | -118.54295 | 2635 ft | 166 kts | 289° |
| 2026-04-25 20:53 | 34.06589 | -118.55594 | 2719 ft | 162 kts | 270° |
| 2026-04-25 20:53 | 34.06344 | -118.56805 | 2717 ft | 148 kts | 230° |
| 2026-04-25 20:53 | 34.05452 | -118.57390 | 2436 ft | 156 kts | 180° |
| 2026-04-25 20:53 | 34.04552 | -118.56812 | 2543 ft | 155 kts | 126° |
| 2026-04-25 20:54 | 34.04100 | -118.55631 | 2721 ft | 155 kts | 109° |
| 2026-04-25 20:54 | 34.04173 | -118.54287 | 2856 ft | 162 kts | 84° |
| 2026-04-25 20:54 | 34.04433 | -118.52972 | 2951 ft | 159 kts | 82° |
| 2026-04-25 20:54 | 34.04661 | -118.51676 | 3045 ft | 158 kts | 84° |
| 2026-04-25 20:55 | 34.04913 | -118.50386 | 3043 ft | 159 kts | 82° |
| 2026-04-25 20:55 | 34.05116 | -118.49078 | 3028 ft | 158 kts | 87° |
| 2026-04-25 20:55 | 34.05251 | -118.47787 | 3059 ft | 154 kts | 88° |
| 2026-04-25 20:55 | 34.05464 | -118.46492 | 2984 ft | 161 kts | 84° |
| 2026-04-25 20:56 | 34.05692 | -118.45187 | 3034 ft | 158 kts | 83° |
| 2026-04-25 20:56 | 34.05943 | -118.43902 | 3025 ft | 158 kts | 80° |
| 2026-04-25 20:56 | 34.06213 | -118.42606 | 2952 ft | 162 kts | 83° |
| 2026-04-25 20:56 | 34.06469 | -118.41289 | 2912 ft | 160 kts | 82° |
| 2026-04-25 20:57 | 34.06705 | -118.39981 | 2852 ft | 161 kts | 82° |
| 2026-04-25 20:57 | 34.06906 | -118.38668 | 2858 ft | 157 kts | 85° |
| 2026-04-25 20:57 | 34.07080 | -118.37376 | 2868 ft | 154 kts | 84° |
| 2026-04-25 20:57 | 34.07280 | -118.36110 | 2848 ft | 152 kts | 83° |
| 2026-04-25 20:58 | 34.07386 | -118.35273 | 2856 ft | 150 kts | 85° |
| 2026-04-25 20:58 | 34.07635 | -118.33620 | 2889 ft | 150 kts | 84° |
| 2026-04-25 20:58 | 34.07748 | -118.32789 | 2841 ft | 152 kts | 85° |
| 2026-04-25 20:58 | 34.08038 | -118.31132 | 2876 ft | 150 kts | 80° |
| 2026-04-25 20:59 | 34.08169 | -118.30315 | 2885 ft | 151 kts | 83° |
| 2026-04-25 20:59 | 34.08355 | -118.29051 | 2862 ft | 152 kts | 81° |
| 2026-04-25 20:59 | 34.08545 | -118.27810 | 2896 ft | 151 kts | 81° |
| 2026-04-25 20:59 | 34.08780 | -118.26551 | 2858 ft | 154 kts | 79° |
| 2026-04-25 21:00 | 34.09014 | -118.25311 | 2907 ft | 150 kts | 80° |
| 2026-04-25 21:00 | 34.09137 | -118.24493 | 2940 ft | 149 kts | 82° |
| 2026-04-25 21:00 | 34.09586 | -118.21582 | 2888 ft | 152 kts | 77° |